createdAt,value
2023-05-16T00:00:46.511Z,46.90
2023-05-16T00:01:46.579Z,46.88
2023-05-16T00:02:48.830Z,46.89
2023-05-16T00:03:47.048Z,46.90
2023-05-16T00:04:46.657Z,46.85
2023-05-16T00:05:46.736Z,46.90
2023-05-16T00:06:46.759Z,46.89
2023-05-16T00:07:46.804Z,46.88
2023-05-16T00:08:46.847Z,46.85
2023-05-16T00:09:46.880Z,46.82
2023-05-16T00:10:46.941Z,46.87
2023-05-16T00:11:47.005Z,46.87
2023-05-16T00:12:47.053Z,46.88
2023-05-16T00:13:47.124Z,46.86
2023-05-16T00:14:47.213Z,46.82
2023-05-16T00:15:47.281Z,46.84
2023-05-16T00:16:47.426Z,46.86
2023-05-16T00:17:47.472Z,46.89
2023-05-16T00:18:47.551Z,46.84
2023-05-16T00:19:47.594Z,46.86
2023-05-16T00:20:47.659Z,46.83
2023-05-16T00:21:47.738Z,46.82
2023-05-16T00:22:47.804Z,46.83
2023-05-16T00:23:47.874Z,46.82
2023-05-16T00:24:47.967Z,46.83
2023-05-16T00:25:48.097Z,46.85
2023-05-16T00:26:48.110Z,46.83
2023-05-16T00:27:48.188Z,46.80
2023-05-16T00:28:48.253Z,46.83
2023-05-16T00:29:48.339Z,46.81
2023-05-16T00:30:48.415Z,46.83
2023-05-16T00:31:48.548Z,46.78
2023-05-16T00:32:48.558Z,46.78
2023-05-16T00:33:48.568Z,46.79
2023-05-16T00:34:48.663Z,46.77
2023-05-16T00:35:48.678Z,46.78
2023-05-16T00:36:48.721Z,46.79
2023-05-16T00:37:48.745Z,46.74
2023-05-16T00:38:48.765Z,46.73
2023-05-16T00:39:48.787Z,46.76
2023-05-16T00:40:48.818Z,46.78
2023-05-16T00:41:49.457Z,46.71
2023-05-16T00:42:48.855Z,46.77
2023-05-16T00:43:48.896Z,46.76
2023-05-16T00:44:48.966Z,46.74
2023-05-16T00:45:48.974Z,46.77
2023-05-16T00:46:48.998Z,46.71
2023-05-16T00:47:49.088Z,46.72
2023-05-16T00:48:49.017Z,46.75
2023-05-16T00:49:49.041Z,46.69
2023-05-16T00:50:49.069Z,46.73
2023-05-16T00:51:49.143Z,46.78
2023-05-16T00:52:49.120Z,46.76
2023-05-16T00:53:49.127Z,46.75
2023-05-16T00:54:49.141Z,46.75
2023-05-16T00:55:49.191Z,46.70
2023-05-16T00:56:49.217Z,46.74
2023-05-16T00:57:49.245Z,46.74
2023-05-16T00:58:49.256Z,46.73
2023-05-16T00:59:49.270Z,46.75
2023-05-16T01:00:49.286Z,46.72
2023-05-16T01:01:49.425Z,46.69
2023-05-16T01:02:49.347Z,46.68
2023-05-16T01:03:49.438Z,46.73
2023-05-16T01:04:49.363Z,46.70
2023-05-16T01:05:49.407Z,46.75
2023-05-16T01:06:49.455Z,46.71
2023-05-16T01:07:49.433Z,46.67
2023-05-16T01:08:49.452Z,46.68
2023-05-16T01:09:49.995Z,46.69
2023-05-16T01:10:49.495Z,46.65
2023-05-16T01:11:49.501Z,46.69
2023-05-16T01:12:49.605Z,46.69
2023-05-16T01:13:49.592Z,46.71
2023-05-16T01:14:49.537Z,46.66
2023-05-16T01:15:49.566Z,46.71
2023-05-16T01:16:49.577Z,46.66
2023-05-16T01:17:49.612Z,46.67
2023-05-16T01:18:49.630Z,46.65
2023-05-16T01:19:49.609Z,46.64
2023-05-16T01:20:49.628Z,46.67
2023-05-16T01:21:49.646Z,46.64
2023-05-16T01:22:49.654Z,46.64
2023-05-16T01:23:49.673Z,46.65
2023-05-16T01:24:49.683Z,46.63
2023-05-16T01:25:49.694Z,46.63
2023-05-16T01:26:49.711Z,46.67
2023-05-16T01:27:49.730Z,46.67
2023-05-16T01:28:49.804Z,46.68
2023-05-16T01:29:49.776Z,46.70
2023-05-16T01:30:49.799Z,46.67
2023-05-16T01:31:49.848Z,46.63
2023-05-16T01:32:49.866Z,46.64
2023-05-16T01:33:49.848Z,46.64
2023-05-16T01:34:49.943Z,46.67
2023-05-16T01:35:49.949Z,46.64
2023-05-16T01:36:49.887Z,46.63
2023-05-16T01:37:49.928Z,46.62
2023-05-16T01:38:49.948Z,46.62
2023-05-16T01:39:49.974Z,46.61
2023-05-16T01:40:50.484Z,46.61
2023-05-16T01:41:49.991Z,46.59
2023-05-16T01:42:50.010Z,46.61
2023-05-16T01:43:50.044Z,46.59
2023-05-16T01:44:50.037Z,46.64
2023-05-16T01:45:50.081Z,46.64
2023-05-16T01:46:50.167Z,46.62
2023-05-16T01:47:50.191Z,46.64
2023-05-16T01:48:50.160Z,46.60
2023-05-16T01:49:50.187Z,46.61
2023-05-16T01:50:50.292Z,46.60
2023-05-16T01:51:50.238Z,46.60
2023-05-16T01:52:50.246Z,46.61
2023-05-16T01:53:50.266Z,46.57
2023-05-16T01:54:50.980Z,46.56
2023-05-16T01:55:50.319Z,46.56
2023-05-16T01:56:50.328Z,46.60
2023-05-16T01:57:50.358Z,46.59
2023-05-16T01:58:50.364Z,46.60
2023-05-16T01:59:50.381Z,46.57
2023-05-16T02:00:50.444Z,46.59
2023-05-16T02:01:50.415Z,46.59
2023-05-16T02:02:50.486Z,46.57
2023-05-16T02:03:50.487Z,46.57
2023-05-16T02:04:50.491Z,46.57
2023-05-16T02:05:50.515Z,46.60
2023-05-16T02:06:50.518Z,46.55
2023-05-16T02:07:50.539Z,46.53
2023-05-16T02:08:50.561Z,46.56
2023-05-16T02:09:50.581Z,46.55
2023-05-16T02:10:50.607Z,46.51
2023-05-16T02:11:50.992Z,46.50
2023-05-16T02:12:50.641Z,46.53
2023-05-16T02:13:50.644Z,46.53
2023-05-16T02:14:50.675Z,46.54
2023-05-16T02:15:50.695Z,46.51
2023-05-16T02:16:50.741Z,46.50
2023-05-16T02:17:50.740Z,46.51
2023-05-16T02:18:50.784Z,46.50
2023-05-16T02:19:50.768Z,46.50
2023-05-16T02:20:50.793Z,46.51
2023-05-16T02:21:50.825Z,46.52
2023-05-16T02:22:50.858Z,46.47
2023-05-16T02:23:50.847Z,46.48
2023-05-16T02:24:50.903Z,46.51
2023-05-16T02:25:50.902Z,46.45
2023-05-16T02:26:50.934Z,46.50
2023-05-16T02:27:50.960Z,46.52
2023-05-16T02:28:50.969Z,46.50
2023-05-16T02:29:50.995Z,46.51
2023-05-16T02:30:51.566Z,46.50
2023-05-16T02:31:51.024Z,46.47
2023-05-16T02:32:51.067Z,46.48
2023-05-16T02:33:51.075Z,46.50
2023-05-16T02:34:51.077Z,46.44
2023-05-16T02:35:51.108Z,46.45
2023-05-16T02:36:51.123Z,46.52
2023-05-16T02:37:51.138Z,46.52
2023-05-16T02:38:51.170Z,46.45
2023-05-16T02:39:51.187Z,46.51
2023-05-16T02:40:51.264Z,46.47
2023-05-16T02:41:51.228Z,46.55
2023-05-16T02:42:51.269Z,46.51
2023-05-16T02:43:51.273Z,46.45
2023-05-16T02:44:51.300Z,46.49
2023-05-16T02:45:51.414Z,46.46
2023-05-16T02:46:51.399Z,46.48
2023-05-16T02:47:51.413Z,46.44
2023-05-16T02:48:51.405Z,46.47
2023-05-16T02:49:51.427Z,46.48
2023-05-16T02:50:51.530Z,46.46
2023-05-16T02:51:51.491Z,46.49
2023-05-16T02:52:51.511Z,46.46
2023-05-16T02:53:51.543Z,46.49
2023-05-16T02:55:04.784Z,46.43
2023-05-16T02:55:52.592Z,46.45
2023-05-16T02:56:51.620Z,46.44
2023-05-16T02:57:51.611Z,46.46
2023-05-16T02:58:51.723Z,46.49
2023-05-16T02:59:51.646Z,46.49
2023-05-16T03:00:51.677Z,46.45
2023-05-16T03:01:51.714Z,46.43
2023-05-16T03:02:51.903Z,46.48
2023-05-16T03:03:51.763Z,46.44
2023-05-16T03:04:51.715Z,46.41
2023-05-16T03:05:51.772Z,46.46
2023-05-16T03:06:51.746Z,46.45
2023-05-16T03:07:51.755Z,46.45
2023-05-16T03:08:51.764Z,46.49
2023-05-16T03:09:51.784Z,46.44
2023-05-16T03:10:51.803Z,46.45
2023-05-16T03:11:51.817Z,46.46
2023-05-16T03:12:51.841Z,46.43
2023-05-16T03:13:51.854Z,46.44
2023-05-16T03:14:51.879Z,46.44
2023-05-16T03:15:51.924Z,46.45
2023-05-16T03:16:51.887Z,46.43
2023-05-16T03:17:51.933Z,46.45
2023-05-16T03:18:51.965Z,46.47
2023-05-16T03:19:51.947Z,46.43
2023-05-16T03:20:51.950Z,46.45
2023-05-16T03:21:51.953Z,46.45
2023-05-16T03:22:51.974Z,46.45
2023-05-16T03:23:51.983Z,46.42
2023-05-16T03:24:52.046Z,46.42
2023-05-16T03:25:52.029Z,46.45
2023-05-16T03:26:52.034Z,46.44
2023-05-16T03:27:52.066Z,46.39
2023-05-16T03:28:52.147Z,46.43
2023-05-16T03:29:52.184Z,46.43
2023-05-16T03:30:52.124Z,46.41
2023-05-16T03:31:52.208Z,46.40
2023-05-16T03:32:52.213Z,46.38
2023-05-16T03:33:52.175Z,46.43
2023-05-16T03:34:52.191Z,46.43
2023-05-16T03:35:52.219Z,46.45
2023-05-16T03:36:52.289Z,46.41
2023-05-16T03:37:52.257Z,46.44
2023-05-16T03:38:52.281Z,46.42
2023-05-16T03:39:52.306Z,46.41
2023-05-16T03:40:52.344Z,46.41
2023-05-16T03:41:52.385Z,46.37
2023-05-16T03:42:52.415Z,46.42
2023-05-16T03:43:52.446Z,46.42
2023-05-16T03:44:52.478Z,46.45
2023-05-16T03:45:52.569Z,46.43
2023-05-16T03:46:52.538Z,46.44
2023-05-16T03:47:52.629Z,46.41
2023-05-16T03:48:52.610Z,46.43
2023-05-16T03:49:52.628Z,46.42
2023-05-16T03:50:52.671Z,46.44
2023-05-16T03:51:52.698Z,46.47
2023-05-16T03:52:52.712Z,46.45
2023-05-16T03:53:52.732Z,46.46
2023-05-16T03:54:52.754Z,46.44
2023-05-16T03:55:53.589Z,46.42
2023-05-16T03:56:52.821Z,46.42
2023-05-16T03:57:52.838Z,46.45
2023-05-16T03:58:52.867Z,46.42
2023-05-16T03:59:52.891Z,46.42
2023-05-16T04:00:52.928Z,46.42
2023-05-16T04:01:53.008Z,46.44
2023-05-16T04:02:53.318Z,46.46
2023-05-16T04:03:53.007Z,46.41
2023-05-16T04:04:53.034Z,46.41
2023-05-16T04:05:53.123Z,46.39
2023-05-16T04:06:53.106Z,46.41
2023-05-16T04:07:53.144Z,46.40
2023-05-16T04:08:53.175Z,46.40
2023-05-16T04:09:53.192Z,46.39
2023-05-16T04:10:53.228Z,46.41
2023-05-16T04:11:53.266Z,46.41
2023-05-16T04:12:53.294Z,46.37
2023-05-16T04:13:53.394Z,46.40
2023-05-16T04:14:53.359Z,46.42
2023-05-16T04:15:53.402Z,46.40
2023-05-16T04:16:53.435Z,46.43
2023-05-16T04:17:53.500Z,46.43
2023-05-16T04:18:53.516Z,46.40
2023-05-16T04:19:53.534Z,46.40
2023-05-16T04:20:53.562Z,46.39
2023-05-16T04:21:53.609Z,46.36
2023-05-16T04:22:53.640Z,46.37
2023-05-16T04:23:53.680Z,46.42
2023-05-16T04:24:53.713Z,46.39
2023-05-16T04:25:53.807Z,46.41
2023-05-16T04:26:53.787Z,46.42
2023-05-16T04:27:53.828Z,46.39
2023-05-16T04:28:53.871Z,46.37
2023-05-16T04:29:53.883Z,46.37
2023-05-16T04:30:53.925Z,46.35
2023-05-16T04:31:54.065Z,46.38
2023-05-16T04:32:54.043Z,46.37
2023-05-16T04:33:54.060Z,46.36
2023-05-16T04:34:54.084Z,46.39
2023-05-16T04:35:54.119Z,46.36
2023-05-16T04:36:54.153Z,46.37
2023-05-16T04:37:54.199Z,46.42
2023-05-16T04:38:54.240Z,46.36
2023-05-16T04:39:54.306Z,46.43
2023-05-16T04:40:54.347Z,46.37
2023-05-16T04:41:54.379Z,46.34
2023-05-16T04:42:54.430Z,46.35
2023-05-16T04:43:54.468Z,46.41
2023-05-16T04:44:54.517Z,46.33
2023-05-16T04:45:54.723Z,46.33
2023-05-16T04:46:54.626Z,46.33
2023-05-16T04:47:54.761Z,46.36
2023-05-16T04:48:54.690Z,46.36
2023-05-16T04:49:54.725Z,46.35
2023-05-16T04:50:54.779Z,46.39
2023-05-16T04:51:54.815Z,46.34
2023-05-16T04:52:56.480Z,46.41
2023-05-16T04:53:54.890Z,46.37
2023-05-16T04:54:54.934Z,46.38
2023-05-16T04:55:54.989Z,46.39
2023-05-16T04:56:55.015Z,46.37
2023-05-16T04:57:55.061Z,46.37
2023-05-16T04:58:55.106Z,46.36
2023-05-16T04:59:55.140Z,46.37
2023-05-16T05:00:55.180Z,46.40
2023-05-16T05:01:55.265Z,46.38
2023-05-16T05:02:55.315Z,46.35
2023-05-16T05:03:56.061Z,46.35
2023-05-16T05:04:55.475Z,46.38
2023-05-16T05:05:55.421Z,46.43
2023-05-16T05:06:55.444Z,46.39
2023-05-16T05:07:55.506Z,46.40
2023-05-16T05:08:55.534Z,46.39
2023-05-16T05:09:55.584Z,46.40
2023-05-16T05:10:55.638Z,46.41
2023-05-16T05:11:55.681Z,46.39
2023-05-16T05:12:55.802Z,46.41
2023-05-16T05:13:55.778Z,46.42
2023-05-16T05:14:55.817Z,46.41
2023-05-16T05:15:55.862Z,46.42
2023-05-16T05:16:55.994Z,46.44
2023-05-16T05:17:56.110Z,46.42
2023-05-16T05:18:56.057Z,46.30
2023-05-16T05:19:56.053Z,46.10
2023-05-16T05:20:56.112Z,45.80
2023-05-16T05:21:56.177Z,44.48
2023-05-16T05:22:56.253Z,43.47
2023-05-16T05:23:56.296Z,43.65
2023-05-16T05:24:56.368Z,44.04
2023-05-16T05:25:56.377Z,44.22
2023-05-16T05:26:56.422Z,44.32
2023-05-16T05:27:56.472Z,44.67
2023-05-16T05:29:04.499Z,44.96
2023-05-16T05:29:57.653Z,44.91
2023-05-16T05:30:56.702Z,44.79
2023-05-16T05:31:56.769Z,45.15
2023-05-16T05:32:56.833Z,45.21
2023-05-16T05:33:56.924Z,45.34
2023-05-16T05:34:56.963Z,45.49
2023-05-16T05:35:57.063Z,45.59
2023-05-16T05:36:57.112Z,45.61
2023-05-16T05:37:57.187Z,45.84
2023-05-16T05:38:57.338Z,45.99
2023-05-16T05:39:57.340Z,46.08
2023-05-16T05:40:57.582Z,46.25
2023-05-16T05:41:57.441Z,46.61
2023-05-16T05:42:57.492Z,47.00
2023-05-16T05:43:57.500Z,47.45
2023-05-16T05:44:58.094Z,47.69
2023-05-16T05:45:57.579Z,47.87
2023-05-16T05:46:57.575Z,48.32
2023-05-16T05:47:57.660Z,48.57
2023-05-16T05:48:57.594Z,48.79
2023-05-16T05:49:57.642Z,49.28
2023-05-16T05:50:58.085Z,49.25
2023-05-16T05:51:57.737Z,49.31
2023-05-16T05:52:57.801Z,49.47
2023-05-16T05:53:58.569Z,49.63
2023-05-16T05:54:57.943Z,49.98
2023-05-16T05:55:58.020Z,50.15
2023-05-16T05:56:58.068Z,50.23
2023-05-16T05:57:58.152Z,50.57
2023-05-16T05:58:58.184Z,50.82
2023-05-16T05:59:58.261Z,50.87
2023-05-16T06:00:58.316Z,50.79
2023-05-16T06:01:58.439Z,50.90
2023-05-16T06:02:58.498Z,50.98
2023-05-16T06:04:58.629Z,51.33
2023-05-16T06:05:58.684Z,51.35
2023-05-16T06:06:58.682Z,51.59
2023-05-16T06:07:58.747Z,51.82
2023-05-16T06:08:58.821Z,51.87
2023-05-16T06:09:58.858Z,51.95
2023-05-16T06:10:58.908Z,52.03
2023-05-16T06:11:58.959Z,52.15
2023-05-16T06:12:59.068Z,52.24
2023-05-16T06:13:59.060Z,52.15
2023-05-16T06:14:59.151Z,52.31
2023-05-16T06:15:59.267Z,52.40
2023-05-16T06:16:59.232Z,52.55
2023-05-16T06:17:59.231Z,52.56
2023-05-16T06:18:59.303Z,52.51
2023-05-16T06:19:59.273Z,53.14
2023-05-16T06:20:59.316Z,52.34
2023-05-16T06:21:59.364Z,52.39
2023-05-16T06:22:59.430Z,51.68
2023-05-16T06:23:59.492Z,51.50
2023-05-16T06:24:59.540Z,51.28
2023-05-16T06:25:59.616Z,51.08
2023-05-16T06:26:59.743Z,50.95
2023-05-16T06:27:59.727Z,50.66
2023-05-16T06:28:59.785Z,50.48
2023-05-16T06:29:59.840Z,50.40
2023-05-16T06:30:59.954Z,50.22
2023-05-16T06:32:00.670Z,50.14
2023-05-16T06:33:00.156Z,50.13
2023-05-16T06:34:00.146Z,50.11
2023-05-16T06:35:00.189Z,50.13
2023-05-16T06:36:00.261Z,50.09
2023-05-16T06:37:00.331Z,50.05
2023-05-16T06:38:01.096Z,50.04
2023-05-16T06:39:00.493Z,50.04
2023-05-16T06:40:00.567Z,49.95
2023-05-16T06:41:00.686Z,49.89
2023-05-16T06:42:00.671Z,49.94
2023-05-16T06:43:00.801Z,49.82
2023-05-16T06:44:00.784Z,49.74
2023-05-16T06:45:00.852Z,49.72
2023-05-16T06:46:00.900Z,49.67
2023-05-16T06:47:00.977Z,49.71
2023-05-16T06:48:01.022Z,49.62
2023-05-16T06:49:01.985Z,49.52
2023-05-16T06:50:01.061Z,49.55
2023-05-16T06:51:01.002Z,49.47
2023-05-16T06:52:01.013Z,49.50
2023-05-16T06:53:01.013Z,49.47
2023-05-16T06:54:02.826Z,49.45
2023-05-16T06:55:01.034Z,49.43
2023-05-16T06:56:01.038Z,49.40
2023-05-16T06:57:01.109Z,49.43
2023-05-16T06:58:01.061Z,49.38
2023-05-16T06:59:01.121Z,49.37
2023-05-16T07:00:01.108Z,49.34
2023-05-16T07:01:01.144Z,49.36
2023-05-16T07:02:01.114Z,49.32
2023-05-16T07:03:01.267Z,49.30
2023-05-16T07:04:01.388Z,49.28
2023-05-16T07:05:01.155Z,49.27
2023-05-16T07:06:01.193Z,49.30
2023-05-16T07:07:01.183Z,49.27
2023-05-16T07:08:01.199Z,49.28
2023-05-16T07:09:01.209Z,49.30
2023-05-16T07:10:01.220Z,49.36
2023-05-16T07:11:01.233Z,49.35
2023-05-16T07:12:01.243Z,49.33
2023-05-16T07:13:01.261Z,49.36
2023-05-16T07:14:01.302Z,49.36
2023-05-16T07:15:01.312Z,49.37
2023-05-16T07:16:01.280Z,49.31
2023-05-16T07:17:01.417Z,49.33
2023-05-16T07:18:01.382Z,49.13
2023-05-16T07:19:01.384Z,49.28
2023-05-16T07:20:04.361Z,49.42
2023-05-16T07:21:01.341Z,49.72
2023-05-16T07:22:01.502Z,50.04
2023-05-16T07:23:01.367Z,50.18
2023-05-16T07:24:01.398Z,50.44
2023-05-16T07:25:01.637Z,50.56
2023-05-16T07:26:01.388Z,50.82
2023-05-16T07:27:01.394Z,51.14
2023-05-16T07:28:01.388Z,51.31
2023-05-16T07:29:02.119Z,51.42
2023-05-16T07:30:01.385Z,51.69
2023-05-16T07:31:01.380Z,51.96
2023-05-16T07:32:01.444Z,52.03
2023-05-16T07:33:01.455Z,52.23
2023-05-16T07:34:01.386Z,52.28
2023-05-16T07:35:01.454Z,52.33
2023-05-16T07:36:15.390Z,52.46
2023-05-16T07:37:02.379Z,52.54
2023-05-16T07:38:02.136Z,52.58
2023-05-16T07:39:01.376Z,52.56
2023-05-16T07:40:01.389Z,52.42
2023-05-16T07:41:01.382Z,52.18
2023-05-16T07:42:01.392Z,51.96
2023-05-16T07:43:01.390Z,51.76
2023-05-16T07:44:01.396Z,51.25
2023-05-16T07:45:01.420Z,51.00
2023-05-16T07:46:01.492Z,50.69
2023-05-16T07:47:01.414Z,50.33
2023-05-16T07:48:01.479Z,50.23
2023-05-16T07:49:01.659Z,50.05
2023-05-16T07:50:01.553Z,49.88
2023-05-16T07:51:01.619Z,49.97
2023-05-16T07:52:02.130Z,50.00
2023-05-16T07:53:02.638Z,50.02
2023-05-16T07:54:01.839Z,50.20
2023-05-16T07:55:01.872Z,50.30
2023-05-16T07:56:01.953Z,50.39
2023-05-16T07:57:01.975Z,50.55
2023-05-16T07:58:02.051Z,50.68
2023-05-16T07:59:02.668Z,50.73
2023-05-16T08:00:02.100Z,50.87
2023-05-16T08:01:02.153Z,50.96
2023-05-16T08:02:02.247Z,51.08
2023-05-16T08:03:02.275Z,51.17
2023-05-16T08:04:02.310Z,51.29
2023-05-16T08:05:02.269Z,51.39
2023-05-16T08:06:02.394Z,51.57
2023-05-16T08:07:02.297Z,51.67
2023-05-16T08:08:02.312Z,51.71
2023-05-16T08:09:02.330Z,51.87
2023-05-16T08:10:03.142Z,51.86
2023-05-16T08:11:02.476Z,51.73
2023-05-16T08:12:02.420Z,51.85
2023-05-16T08:13:02.456Z,51.70
2023-05-16T08:14:02.466Z,51.77
2023-05-16T08:15:02.508Z,51.70
2023-05-16T08:16:02.641Z,51.60
2023-05-16T08:17:02.575Z,51.88
2023-05-16T08:18:02.685Z,51.63
2023-05-16T08:19:03.677Z,51.89
2023-05-16T08:20:02.715Z,51.91
2023-05-16T08:21:02.782Z,51.70
2023-05-16T08:22:02.857Z,52.09
2023-05-16T08:23:02.904Z,51.84
2023-05-16T08:24:02.960Z,51.93
2023-05-16T08:25:03.033Z,51.81
2023-05-16T08:26:03.120Z,52.31
2023-05-16T08:27:03.163Z,51.75
2023-05-16T08:28:03.273Z,51.86
2023-05-16T08:29:03.269Z,51.62
2023-05-16T08:30:03.379Z,51.66
2023-05-16T08:31:03.479Z,51.46
2023-05-16T08:32:03.410Z,51.50
2023-05-16T08:33:03.664Z,51.45
2023-05-16T08:34:03.481Z,51.54
2023-05-16T08:35:03.487Z,51.69
2023-05-16T08:36:03.511Z,51.85
2023-05-16T08:37:03.527Z,52.06
2023-05-16T08:38:03.553Z,52.16
2023-05-16T08:39:03.572Z,52.31
2023-05-16T08:40:03.554Z,52.49
2023-05-16T08:41:03.526Z,52.68
2023-05-16T08:42:03.550Z,52.91
2023-05-16T08:43:03.634Z,53.04
2023-05-16T08:44:04.150Z,53.03
2023-05-16T08:45:03.628Z,53.19
2023-05-16T08:46:03.606Z,53.18
2023-05-16T08:47:03.647Z,53.30
2023-05-16T08:48:03.752Z,53.38
2023-05-16T08:49:03.674Z,53.39
2023-05-16T08:50:03.722Z,53.47
2023-05-16T08:51:03.797Z,53.63
2023-05-16T08:52:03.821Z,53.67
2023-05-16T08:53:03.884Z,53.96
2023-05-16T08:54:03.951Z,54.08
2023-05-16T08:55:10.319Z,54.14
2023-05-16T08:56:04.986Z,54.16
2023-05-16T08:57:03.975Z,54.30
2023-05-16T08:58:03.979Z,54.47
2023-05-16T08:59:03.945Z,54.29
2023-05-16T09:00:03.926Z,54.45
2023-05-16T09:01:03.912Z,54.53
2023-05-16T09:02:03.905Z,54.59
2023-05-16T09:03:04.033Z,54.72
2023-05-16T09:04:04.061Z,54.89
2023-05-16T09:05:03.935Z,54.79
2023-05-16T09:06:05.432Z,55.07
2023-05-16T09:07:04.032Z,54.86
2023-05-16T09:08:04.085Z,55.10
2023-05-16T09:09:04.134Z,55.14
2023-05-16T09:10:04.274Z,55.15
2023-05-16T09:11:05.153Z,55.36
2023-05-16T09:12:04.254Z,55.43
2023-05-16T09:13:04.322Z,55.37
2023-05-16T09:14:05.176Z,55.54
2023-05-16T09:15:04.392Z,55.59
2023-05-16T09:16:04.432Z,55.87
2023-05-16T09:17:04.531Z,55.05
2023-05-16T09:18:04.525Z,54.47
2023-05-16T09:19:04.668Z,51.91
2023-05-16T09:20:04.519Z,50.84
2023-05-16T09:21:04.554Z,52.22
2023-05-16T09:22:04.646Z,52.56
2023-05-16T09:23:04.597Z,52.74
2023-05-16T09:24:04.610Z,52.94
2023-05-16T09:25:06.902Z,53.05
2023-05-16T09:26:04.592Z,53.09
2023-05-16T09:27:05.165Z,53.24
2023-05-16T09:28:04.558Z,53.34
2023-05-16T09:29:04.549Z,53.52
2023-05-16T09:30:05.172Z,53.58
2023-05-16T09:31:04.545Z,53.80
2023-05-16T09:32:04.492Z,53.87
2023-05-16T09:33:04.546Z,53.94
2023-05-16T09:34:04.447Z,54.06
2023-05-16T09:35:04.444Z,54.26
2023-05-16T09:36:04.400Z,54.34
2023-05-16T09:37:04.430Z,54.37
2023-05-16T09:38:04.379Z,54.43
2023-05-16T09:39:04.352Z,54.54
2023-05-16T09:40:04.327Z,54.64
2023-05-16T09:41:04.314Z,54.64
2023-05-16T09:42:04.281Z,54.94
2023-05-16T09:43:04.259Z,54.99
2023-05-16T09:44:04.246Z,55.10
2023-05-16T09:45:04.240Z,55.24
2023-05-16T09:46:04.338Z,55.33
2023-05-16T09:47:04.187Z,55.39
2023-05-16T09:48:04.207Z,55.47
2023-05-16T09:49:04.154Z,55.57
2023-05-16T09:50:04.153Z,55.88
2023-05-16T09:51:04.101Z,55.76
2023-05-16T09:52:04.095Z,55.75
2023-05-16T09:53:04.057Z,55.88
2023-05-16T09:54:04.033Z,56.10
2023-05-16T09:55:03.995Z,56.16
2023-05-16T09:56:03.999Z,56.13
2023-05-16T09:57:03.945Z,56.28
2023-05-16T09:58:03.913Z,56.37
2023-05-16T09:59:03.908Z,56.37
2023-05-16T10:00:03.889Z,56.65
2023-05-16T10:01:03.883Z,56.51
2023-05-16T10:02:04.122Z,56.55
2023-05-16T10:03:05.622Z,56.65
2023-05-16T10:04:04.107Z,56.73
2023-05-16T10:05:03.900Z,56.83
2023-05-16T10:06:03.894Z,56.85
2023-05-16T10:07:03.894Z,56.92
2023-05-16T10:08:03.932Z,57.02
2023-05-16T10:09:03.889Z,57.11
2023-05-16T10:10:03.897Z,57.20
2023-05-16T10:11:03.900Z,57.44
2023-05-16T10:12:03.930Z,57.51
2023-05-16T10:13:03.967Z,56.97
2023-05-16T10:14:06.016Z,56.80
2023-05-16T10:15:04.012Z,56.74
2023-05-16T10:16:04.022Z,56.65
2023-05-16T10:17:03.936Z,56.62
2023-05-16T10:18:04.155Z,56.68
2023-05-16T10:19:04.762Z,56.37
2023-05-16T10:20:03.881Z,56.28
2023-05-16T10:21:03.946Z,56.31
2023-05-16T10:22:03.862Z,56.31
2023-05-16T10:23:03.826Z,56.34
2023-05-16T10:24:03.838Z,56.33
2023-05-16T10:25:03.794Z,56.24
2023-05-16T10:26:03.786Z,56.23
2023-05-16T10:27:03.760Z,56.20
2023-05-16T10:28:03.748Z,56.13
2023-05-16T10:29:03.717Z,56.12
2023-05-16T10:30:03.737Z,56.11
2023-05-16T10:31:05.113Z,56.17
2023-05-16T10:32:03.725Z,56.18
2023-05-16T10:33:03.727Z,56.19
2023-05-16T10:34:03.695Z,56.19
2023-05-16T10:35:03.658Z,56.21
2023-05-16T10:36:03.663Z,56.14
2023-05-16T10:37:03.637Z,56.18
2023-05-16T10:38:04.558Z,56.15
2023-05-16T10:39:03.610Z,56.21
2023-05-16T10:40:03.622Z,56.20
2023-05-16T10:41:03.706Z,56.15
2023-05-16T10:42:03.625Z,56.16
2023-05-16T10:43:03.614Z,56.15
2023-05-16T10:44:03.609Z,56.16
2023-05-16T10:45:05.816Z,56.14
2023-05-16T10:46:03.813Z,56.14
2023-05-16T10:47:03.770Z,56.14
2023-05-16T10:48:04.877Z,56.12
2023-05-16T10:49:03.772Z,56.09
2023-05-16T10:50:03.854Z,56.14
2023-05-16T10:51:03.824Z,56.16
2023-05-16T10:52:03.776Z,56.14
2023-05-16T10:53:03.759Z,56.14
2023-05-16T10:54:03.764Z,56.13
2023-05-16T10:55:03.761Z,56.14
2023-05-16T10:56:03.766Z,56.13
2023-05-16T10:57:03.770Z,56.14
2023-05-16T10:58:03.846Z,56.12
2023-05-16T10:59:03.780Z,56.06
2023-05-16T11:00:03.783Z,56.07
2023-05-16T11:01:04.713Z,56.07
2023-05-16T11:02:03.937Z,56.11
2023-05-16T11:03:03.824Z,56.01
2023-05-16T11:04:03.895Z,56.05
2023-05-16T11:05:03.792Z,56.00
2023-05-16T11:06:03.912Z,56.07
2023-05-16T11:07:03.804Z,56.08
2023-05-16T11:08:03.801Z,56.02
2023-05-16T11:09:03.837Z,56.03
2023-05-16T11:10:03.841Z,56.05
2023-05-16T11:11:03.853Z,56.00
2023-05-16T11:12:04.049Z,55.99
2023-05-16T11:13:03.839Z,56.04
2023-05-16T11:14:03.844Z,56.03
2023-05-16T11:15:03.851Z,55.99
2023-05-16T11:16:03.859Z,56.02
2023-05-16T11:17:03.883Z,55.97
2023-05-16T11:18:03.942Z,56.01
2023-05-16T11:19:03.901Z,55.97
2023-05-16T11:20:03.909Z,55.97
2023-05-16T11:21:03.899Z,55.99
2023-05-16T11:22:03.925Z,56.00
2023-05-16T11:23:03.906Z,56.02
2023-05-16T11:24:03.911Z,55.99
2023-05-16T11:25:03.923Z,55.98
2023-05-16T11:26:03.918Z,55.97
2023-05-16T11:27:03.925Z,55.94
2023-05-16T11:28:03.923Z,55.95
2023-05-16T11:29:03.945Z,55.95
2023-05-16T11:30:04.254Z,55.92
2023-05-16T11:31:04.034Z,55.93
2023-05-16T11:32:04.034Z,55.91
2023-05-16T11:33:04.031Z,55.96
2023-05-16T11:34:03.973Z,55.88
2023-05-16T11:35:04.083Z,55.85
2023-05-16T11:36:15.061Z,55.82
2023-05-16T11:37:05.030Z,55.82
2023-05-16T11:38:03.985Z,55.79
2023-05-16T11:39:03.946Z,55.82
2023-05-16T11:40:04.055Z,55.77
2023-05-16T11:41:03.937Z,55.79
2023-05-16T11:42:03.941Z,55.79
2023-05-16T11:43:06.508Z,55.72
2023-05-16T11:44:03.928Z,55.71
2023-05-16T11:45:03.926Z,55.72
2023-05-16T11:46:03.905Z,55.69
2023-05-16T11:47:04.087Z,55.68
2023-05-16T11:48:03.952Z,55.74
2023-05-16T11:49:03.895Z,55.67
2023-05-16T11:50:03.953Z,55.72
2023-05-16T11:51:03.884Z,55.70
2023-05-16T11:52:03.882Z,55.67
2023-05-16T11:53:03.855Z,55.64
2023-05-16T11:54:03.881Z,55.62
2023-05-16T11:55:03.857Z,55.58
2023-05-16T11:56:03.837Z,55.61
2023-05-16T11:57:03.841Z,55.56
2023-05-16T11:58:03.831Z,55.55
2023-05-16T11:59:03.837Z,55.51
2023-05-16T12:00:03.834Z,55.52
2023-05-16T12:01:03.806Z,55.53
2023-05-16T12:02:03.818Z,55.54
2023-05-16T12:03:03.856Z,55.48
2023-05-16T12:04:03.887Z,55.46
2023-05-16T12:05:03.832Z,55.42
2023-05-16T12:06:03.773Z,55.39
2023-05-16T12:07:03.773Z,55.41
2023-05-16T12:08:03.745Z,55.35
2023-05-16T12:09:03.747Z,55.39
2023-05-16T12:10:04.817Z,55.34
2023-05-16T12:11:03.734Z,55.32
2023-05-16T12:12:03.721Z,55.28
2023-05-16T12:13:03.762Z,55.29
2023-05-16T12:14:03.698Z,55.25
2023-05-16T12:15:03.684Z,55.26
2023-05-16T12:16:03.677Z,55.29
2023-05-16T12:17:03.825Z,55.20
2023-05-16T12:18:03.776Z,55.20
2023-05-16T12:19:03.656Z,55.25
2023-05-16T12:20:03.653Z,55.23
2023-05-16T12:21:03.637Z,55.22
2023-05-16T12:22:03.693Z,55.20
2023-05-16T12:23:03.618Z,55.16
2023-05-16T12:24:03.620Z,55.21
2023-05-16T12:25:03.675Z,55.18
2023-05-16T12:26:03.758Z,55.17
2023-05-16T12:27:03.606Z,55.13
2023-05-16T12:28:04.235Z,55.13
2023-05-16T12:29:03.637Z,55.09
2023-05-16T12:30:03.628Z,55.06
2023-05-16T12:31:03.667Z,55.05
2023-05-16T12:32:03.791Z,55.04
2023-05-16T12:33:07.646Z,55.08
2023-05-16T12:34:03.704Z,55.06
2023-05-16T12:35:03.689Z,55.02
2023-05-16T12:36:03.700Z,54.99
2023-05-16T12:37:03.694Z,55.01
2023-05-16T12:38:03.699Z,54.87
2023-05-16T12:39:03.727Z,54.96
2023-05-16T12:40:03.695Z,54.95
2023-05-16T12:41:03.687Z,54.90
2023-05-16T12:42:03.753Z,54.84
2023-05-16T12:43:03.675Z,54.82
2023-05-16T12:44:03.677Z,54.80
2023-05-16T12:45:03.679Z,54.75
2023-05-16T12:46:03.766Z,54.74
2023-05-16T12:47:03.670Z,54.72
2023-05-16T12:48:03.707Z,54.69
2023-05-16T12:49:03.644Z,54.70
2023-05-16T12:50:03.640Z,54.69
2023-05-16T12:51:03.643Z,54.72
2023-05-16T12:52:03.634Z,54.65
2023-05-16T12:53:03.644Z,54.69
2023-05-16T12:54:09.695Z,54.63